Time;durP1;ratioP1;P1;durP2;ratioP2;P2;SDS_P1;SDS_P2;PMS_P1;PMS_P2;Temp;Humidity;BMP_temperature;BMP_pressure;BME280_temperature;BME280_humidity;BME280_pressure;Samples;Min_cycle;Max_cycle;Signal;HPM_P1;HPM_P2
2021/01/06 00:01:43;;;;;;;41.10;20.10;;;0.10;99.90;;;;;;5013887;28;20113;-82
2021/01/06 00:04:08;;;;;;;50.13;21.42;;;0.10;99.90;;;;;;5013929;28;20195;-82
2021/01/06 00:06:37;;;;;;;41.55;20.92;;;0.10;99.90;;;;;;5013801;28;20045;-81
2021/01/06 00:09:04;;;;;;;42.63;19.98;;;0.10;99.90;;;;;;5012856;28;20468;-82
2021/01/06 00:11:36;;;;;;;43.33;20.30;;;0.20;99.90;;;;;;5012665;28;20121;-82
2021/01/06 00:14:06;;;;;;;42.42;19.02;;;0.20;99.90;;;;;;5013806;28;20026;-82
2021/01/06 00:16:31;;;;;;;50.75;20.50;;;0.10;99.90;;;;;;5012647;28;20049;-81
2021/01/06 00:18:57;;;;;;;39.20;17.60;;;0.10;99.90;;;;;;5013652;28;20056;-81
2021/01/06 00:21:22;;;;;;;44.55;19.60;;;0.10;99.90;;;;;;5013757;28;20033;-82
2021/01/06 00:23:48;;;;;;;41.30;20.80;;;0.10;99.90;;;;;;5008261;28;20041;-82
2021/01/06 00:26:14;;;;;;;43.25;18.90;;;0.10;99.90;;;;;;4992669;28;20030;-81
2021/01/06 00:28:39;;;;;;;42.17;18.08;;;0.10;99.90;;;;;;4992040;28;20547;-81
2021/01/06 00:31:05;;;;;;;46.00;19.08;;;0.10;99.90;;;;;;4993898;28;20041;-81
2021/01/06 00:33:34;;;;;;;48.25;21.30;;;0.10;99.90;;;;;;4992685;28;20157;-81
2021/01/06 00:36:18;;;;;;;42.15;20.67;;;0.10;99.90;;;;;;5008886;28;20072;-81
2021/01/06 00:38:43;;;;;;;41.95;20.00;;;0.10;99.90;;;;;;4993787;28;20027;-81
2021/01/06 00:41:09;;;;;;;46.10;19.45;;;0.10;99.90;;;;;;5010990;28;20044;-80
2021/01/06 00:43:34;;;;;;;41.42;20.48;;;0.10;99.90;;;;;;5013384;28;20423;-80
2021/01/06 00:46:00;;;;;;;38.53;18.17;;;0.10;99.90;;;;;;5013291;28;20069;-81
2021/01/06 00:48:26;;;;;;;39.80;17.33;;;0.10;99.90;;;;;;5013243;28;20105;-81
2021/01/06 00:50:52;;;;;;;40.45;18.20;;;0.10;99.90;;;;;;5013354;28;20026;-81
2021/01/06 00:53:24;;;;;;;36.28;17.65;;;0.10;99.90;;;;;;5011663;28;20026;-81
2021/01/06 00:55:51;;;;;;;41.80;17.63;;;0.10;99.90;;;;;;5011901;28;20132;-81
2021/01/06 00:58:17;;;;;;;37.35;17.90;;;0.10;99.90;;;;;;5011822;28;20438;-80
2021/01/06 01:00:43;;;;;;;44.42;18.75;;;0.10;99.90;;;;;;5011834;28;20026;-81
2021/01/06 01:03:09;;;;;;;43.20;18.95;;;0.10;99.90;;;;;;5011743;28;20095;-81
2021/01/06 01:05:36;;;;;;;40.85;18.67;;;0.10;99.90;;;;;;5011701;28;20030;-81
2021/01/06 01:08:03;;;;;;;39.47;19.08;;;0.10;99.90;;;;;;5012360;28;20033;-81
2021/01/06 01:10:33;;;;;;;40.50;17.42;;;0.10;99.90;;;;;;5011682;28;20036;-81
2021/01/06 01:13:00;;;;;;;47.85;19.85;;;0.10;99.90;;;;;;5010890;28;20064;-81
2021/01/06 01:15:28;;;;;;;40.60;18.17;;;0.10;99.90;;;;;;5011461;28;20370;-81
2021/01/06 01:17:55;;;;;;;43.60;19.17;;;0.10;99.90;;;;;;5000475;28;20109;-81
2021/01/06 01:20:21;;;;;;;40.85;17.70;;;0.10;99.90;;;;;;5011241;28;20057;-81
2021/01/06 01:22:48;;;;;;;44.08;18.02;;;0.10;99.90;;;;;;5006808;28;20419;-81
2021/01/06 01:25:17;;;;;;;49.83;19.08;;;0.10;99.90;;;;;;5001064;28;20042;-81
2021/01/06 01:27:43;;;;;;;42.50;18.60;;;0.20;99.90;;;;;;5012731;28;20037;-81
2021/01/06 01:30:14;;;;;;;42.17;20.13;;;0.20;99.90;;;;;;5011469;28;20018;-81
2021/01/06 01:32:42;;;;;;;38.50;18.60;;;0.20;99.90;;;;;;5011041;28;20034;-81
2021/01/06 01:35:09;;;;;;;46.33;20.10;;;0.20;99.90;;;;;;5014311;28;20022;-81
2021/01/06 01:37:35;;;;;;;43.63;18.50;;;0.20;99.90;;;;;;5016678;28;20029;-81
2021/01/06 01:40:00;;;;;;;46.15;18.42;;;0.20;99.90;;;;;;5014823;28;20021;-81
2021/01/06 01:42:26;;;;;;;45.05;20.10;;;0.20;99.90;;;;;;5015354;28;20065;-81
2021/01/06 01:45:01;;;;;;;42.65;21.17;;;0.10;99.90;;;;;;5031047;28;20164;-81
2021/01/06 01:48:04;;;;;;;49.45;21.30;;;0.20;99.90;;;;;;5015359;28;20018;-81
2021/01/06 01:50:31;;;;;;;50.45;20.65;;;0.20;99.90;;;;;;4997609;28;20064;-81
2021/01/06 01:53:04;;;;;;;42.47;18.65;;;0.20;99.90;;;;;;5015744;28;20042;-82
2021/01/06 01:55:31;;;;;;;40.42;18.80;;;0.20;99.90;;;;;;5014965;28;20033;-81
2021/01/06 01:58:07;;;;;;;38.45;19.00;;;0.20;99.90;;;;;;5015042;28;20029;-81
2021/01/06 02:00:37;;;;;;;48.22;19.98;;;0.20;99.90;;;;;;5031269;28;20518;-81
2021/01/06 02:03:16;;;;;;;41.10;18.40;;;0.20;99.90;;;;;;5016323;28;20022;-81
2021/01/06 02:05:51;;;;;;;44.67;20.05;;;0.30;99.90;;;;;;5011880;28;20045;-81
2021/01/06 02:08:23;;;;;;;45.42;19.40;;;0.20;99.90;;;;;;5014612;28;20018;-81
2021/01/06 02:10:56;;;;;;;48.30;20.02;;;0.20;99.90;;;;;;5016287;28;20034;-81
2021/01/06 02:13:40;;;;;;;50.13;21.60;;;0.20;99.90;;;;;;5014594;28;20104;-81
2021/01/06 02:16:18;;;;;;;45.08;18.58;;;0.20;99.90;;;;;;5031266;28;20041;-81
2021/01/06 02:18:43;;;;;;;49.22;21.70;;;0.20;99.90;;;;;;5014437;28;20044;-81
2021/01/06 02:21:10;;;;;;;46.08;21.80;;;0.20;99.90;;;;;;5014641;28;20563;-81
2021/01/06 02:23:38;;;;;;;47.35;19.85;;;0.20;99.90;;;;;;5015886;28;20029;-81
2021/01/06 02:26:04;;;;;;;42.83;20.00;;;0.30;99.90;;;;;;5015830;28;20048;-81
2021/01/06 02:28:30;;;;;;;47.00;22.23;;;0.30;99.90;;;;;;5015862;28;20029;-81
2021/01/06 02:30:56;;;;;;;46.78;21.75;;;0.20;99.90;;;;;;5015546;28;20501;-81
2021/01/06 02:33:23;;;;;;;51.88;24.08;;;0.20;99.90;;;;;;5013744;28;20018;-81
2021/01/06 02:35:51;;;;;;;53.25;22.35;;;0.20;99.90;;;;;;5015387;28;20022;-82
2021/01/06 02:38:18;;;;;;;47.88;21.70;;;0.30;99.90;;;;;;5015614;28;20026;-81
2021/01/06 02:40:43;;;;;;;48.88;22.85;;;0.30;99.90;;;;;;5014446;28;20109;-81
2021/01/06 02:43:09;;;;;;;48.88;21.42;;;0.30;99.90;;;;;;5014228;28;20468;-81
2021/01/06 02:45:35;;;;;;;53.58;24.42;;;0.30;99.90;;;;;;5014167;28;20041;-82
2021/01/06 02:48:01;;;;;;;57.15;24.02;;;0.30;99.90;;;;;;5014040;28;20092;-81
2021/01/06 02:50:29;;;;;;;53.55;24.80;;;0.30;99.90;;;;;;5015410;28;20034;-82
2021/01/06 02:53:04;;;;;;;56.72;24.20;;;0.30;99.90;;;;;;5013908;28;20030;-82
2021/01/06 02:55:32;;;;;;;46.67;23.75;;;0.30;99.90;;;;;;5014150;28;20037;-81
2021/01/06 02:58:04;;;;;;;49.63;23.58;;;0.30;99.90;;;;;;5013950;28;20049;-82
2021/01/06 03:00:30;;;;;;;49.57;21.97;;;0.30;99.90;;;;;;5015421;28;20026;-82
2021/01/06 03:02:58;;;;;;;47.70;22.05;;;0.30;99.90;;;;;;5013907;28;20268;-81
2021/01/06 03:05:41;;;;;;;50.75;22.48;;;0.40;99.90;;;;;;5014768;28;20029;-81
2021/01/06 03:08:08;;;;;;;;;;;0.40;99.90;;;;;;5014200;28;20510;-81
2021/01/06 03:10:34;;;;;;;51.65;22.15;;;0.40;99.90;;;;;;5030380;28;19905;-81
2021/01/06 03:13:00;;;;;;;52.65;22.80;;;0.40;99.90;;;;;;5014852;28;20113;-81
2021/01/06 03:15:28;;;;;;;50.72;22.48;;;0.40;99.90;;;;;;5013700;28;20050;-81
2021/01/06 03:17:55;;;;;;;50.90;23.17;;;0.40;99.90;;;;;;5013426;28;20026;-81
2021/01/06 03:20:33;;;;;;;59.05;25.65;;;0.40;99.90;;;;;;5013654;28;20033;-81
2021/01/06 03:23:23;;;;;;;55.97;24.13;;;0.30;99.90;;;;;;5013598;28;20484;-82
2021/01/06 03:25:49;;;;;;;55.22;24.80;;;0.30;99.90;;;;;;5013415;28;20188;-81
2021/01/06 03:28:17;;;;;;;56.47;23.52;;;0.40;99.90;;;;;;5013432;28;20022;-81
2021/01/06 03:30:45;;;;;;;60.60;24.05;;;0.40;99.90;;;;;;5014547;28;20105;-81
2021/01/06 03:33:20;;;;;;;62.50;25.92;;;0.40;99.90;;;;;;5009869;28;20049;-81
2021/01/06 03:35:59;;;;;;;48.40;21.92;;;0.40;99.90;;;;;;4993750;28;20034;-81
2021/01/06 03:38:42;;;;;;;62.22;26.48;;;0.40;99.90;;;;;;5001580;28;20480;-81
2021/01/06 03:41:09;;;;;;;62.53;24.35;;;0.40;99.90;;;;;;5012925;28;20029;-81
2021/01/06 03:43:40;;;;;;;52.95;23.17;;;0.40;99.90;;;;;;5013393;28;20149;-81
2021/01/06 03:46:40;;;;;;;48.25;21.92;;;0.40;99.90;;;;;;5014650;28;20061;-81
2021/01/06 03:49:30;;;;;;;49.72;22.40;;;0.40;99.90;;;;;;5011904;28;20033;-81
2021/01/06 03:52:01;;;;;;;46.60;21.00;;;0.40;99.90;;;;;;5012953;28;20053;-82
2021/01/06 03:54:44;;;;;;;55.67;21.90;;;0.50;99.90;;;;;;5008797;28;20061;-81
2021/01/06 03:57:12;;;;;;;41.72;21.95;;;0.50;99.90;;;;;;5026682;28;20052;-80
2021/01/06 03:59:42;;;;;;;53.58;24.45;;;0.50;99.90;;;;;;5009436;28;20037;-81
2021/01/06 04:02:11;;;;;;;46.60;21.08;;;0.50;99.90;;;;;;4994868;28;20473;-81
2021/01/06 04:04:41;;;;;;;54.42;23.17;;;0.50;99.90;;;;;;5029566;28;20038;-81
2021/01/06 04:07:31;;;;;;;51.97;22.25;;;0.40;99.90;;;;;;5008458;28;20346;-81
2021/01/06 04:10:10;;;;;;;54.50;22.90;;;0.40;99.90;;;;;;5012691;28;20113;-81
2021/01/06 04:12:36;;;;;;;49.78;22.88;;;0.40;99.90;;;;;;5013024;28;20037;-81
2021/01/06 04:15:03;;;;;;;48.88;22.95;;;0.50;99.90;;;;;;5012655;28;20022;-81
2021/01/06 04:17:33;;;;;;;58.05;23.73;;;0.50;99.90;;;;;;5012883;28;20104;-81
2021/01/06 04:20:14;;;;;;;57.97;23.98;;;0.50;99.90;;;;;;5013717;28;20021;-81
2021/01/06 04:22:54;;;;;;;55.58;24.30;;;0.50;99.90;;;;;;5012665;28;20404;-81
2021/01/06 04:25:25;;;;;;;61.80;24.92;;;0.50;99.90;;;;;;5014017;28;20462;-81
2021/01/06 04:28:13;;;;;;;60.28;25.95;;;0.50;99.90;;;;;;5013989;28;20030;-81
2021/01/06 04:30:57;;;;;;;54.85;25.75;;;0.50;99.90;;;;;;5009143;28;20094;-81
2021/01/06 04:33:31;;;;;;;56.38;23.35;;;0.60;99.90;;;;;;5012513;28;20026;-81
2021/01/06 04:36:00;;;;;;;48.38;24.63;;;0.50;99.90;;;;;;5011883;28;20029;-81
2021/01/06 04:38:29;;;;;;;56.72;25.00;;;0.50;99.90;;;;;;5012287;28;20051;-81
2021/01/06 04:41:11;;;;;;;51.85;25.10;;;0.50;99.90;;;;;;5012464;28;20076;-82
2021/01/06 04:44:06;;;;;;;56.75;25.17;;;0.50;99.90;;;;;;5012428;28;20028;-81
2021/01/06 04:46:44;;;;;;;59.80;24.63;;;0.50;99.90;;;;;;5012426;28;20038;-81
2021/01/06 04:49:28;;;;;;;59.75;25.02;;;0.50;99.90;;;;;;5012352;28;20055;-81
2021/01/06 04:52:16;;;;;;;52.88;23.70;;;0.50;99.90;;;;;;5013529;28;20029;-81
2021/01/06 04:55:00;;;;;;;46.55;20.48;;;0.50;99.90;;;;;;5013510;28;20471;-81
2021/01/06 04:57:42;;;;;;;54.20;21.90;;;0.50;99.90;;;;;;5013494;28;20080;-81
2021/01/06 05:00:22;;;;;;;53.40;22.42;;;0.50;99.90;;;;;;5013481;28;20032;-81
2021/01/06 05:03:27;;;;;;;41.95;19.58;;;0.40;99.90;;;;;;5012133;28;20042;-81
2021/01/06 05:06:10;;;;;;;56.38;21.38;;;0.40;99.90;;;;;;5003347;28;20042;-81
2021/01/06 05:08:42;;;;;;;54.20;22.55;;;0.40;99.90;;;;;;5011774;28;20038;-81
2021/01/06 05:11:26;;;;;;;46.90;20.58;;;0.40;99.90;;;;;;5012831;28;20116;-81
2021/01/06 05:14:00;;;;;;;47.72;19.63;;;0.30;99.90;;;;;;5011602;28;20041;-81
2021/01/06 05:16:37;;;;;;;47.17;21.10;;;0.30;99.90;;;;;;5012046;28;20037;-81
2021/01/06 05:19:22;;;;;;;62.95;22.90;;;0.30;99.90;;;;;;5028341;28;20018;-81
2021/01/06 05:21:49;;;;;;;50.63;21.42;;;0.30;99.90;;;;;;5011500;28;20040;-81
2021/01/06 05:24:23;;;;;;;49.05;21.92;;;0.40;99.90;;;;;;5011852;28;20017;-81
2021/01/06 05:27:00;;;;;;;49.75;24.40;;;0.30;99.90;;;;;;5013037;28;20038;-82
2021/01/06 05:29:29;;;;;;;54.60;23.45;;;0.30;99.90;;;;;;5011847;28;20026;-81
2021/01/06 05:31:55;;;;;;;56.78;24.73;;;0.30;99.90;;;;;;5011818;28;20458;-81
2021/01/06 05:34:24;;;;;;;50.40;25.13;;;0.30;99.90;;;;;;5013061;28;20032;-81
2021/01/06 05:36:51;;;;;;;47.78;23.42;;;0.30;99.90;;;;;;5012640;28;20034;-81
2021/01/06 05:39:23;;;;;;;53.95;22.25;;;0.30;99.90;;;;;;5012921;28;20390;-81
2021/01/06 05:42:04;;;;;;;52.17;22.80;;;0.30;99.90;;;;;;5011753;28;20025;-81
2021/01/06 05:44:32;;;;;;;59.78;26.00;;;0.30;99.90;;;;;;5011845;28;20022;-81
2021/01/06 05:46:57;;;;;;;53.33;23.23;;;0.30;99.90;;;;;;5012719;28;20491;-81
2021/01/06 05:49:27;;;;;;;44.95;21.45;;;0.30;99.90;;;;;;5011320;28;20109;-81
2021/01/06 05:52:00;;;;;;;44.63;20.65;;;0.30;99.90;;;;;;5011565;28;20068;-81
2021/01/06 05:54:40;;;;;;;47.30;21.45;;;0.30;99.90;;;;;;5012996;28;20022;-81
2021/01/06 05:57:23;;;;;;;45.72;21.60;;;0.30;99.90;;;;;;5011174;28;20116;-81
2021/01/06 05:59:49;;;;;;;54.03;26.40;;;0.20;99.90;;;;;;5011622;28;20018;-81
2021/01/06 06:02:44;;;;;;;55.28;23.05;;;0.20;99.90;;;;;;5012730;28;20057;-81
2021/01/06 06:05:37;;;;;;;51.17;23.33;;;0.10;99.90;;;;;;5011308;28;20034;-81
2021/01/06 06:08:36;;;;;;;57.25;25.10;;;0.10;99.90;;;;;;5011386;28;20034;-82
2021/01/06 06:11:01;;;;;;;55.05;23.38;;;0.10;99.90;;;;;;5011486;28;20030;-81
2021/01/06 06:13:42;;;;;;;56.10;24.05;;;0.10;99.90;;;;;;5011710;28;20487;-81
2021/01/06 06:16:29;;;;;;;54.10;24.23;;;0.20;99.90;;;;;;5012149;28;20030;-81
2021/01/06 06:19:13;;;;;;;58.83;25.85;;;0.20;99.90;;;;;;5012669;28;20030;-81
2021/01/06 06:22:01;;;;;;;67.68;25.83;;;0.20;99.90;;;;;;5033350;28;20136;-81
2021/01/06 06:24:54;;;;;;;57.17;27.50;;;0.30;99.90;;;;;;5034788;28;20112;-81
2021/01/06 06:27:41;;;;;;;59.13;26.05;;;0.30;99.90;;;;;;5021489;28;20026;-81
2021/01/06 06:30:10;;;;;;;54.33;25.23;;;0.30;99.90;;;;;;4995430;28;20027;-81
2021/01/06 06:32:39;;;;;;;56.53;24.92;;;0.30;99.90;;;;;;4996300;28;20414;-81
2021/01/06 06:35:19;;;;;;;55.47;23.77;;;0.30;99.90;;;;;;5022468;28;20026;-81
2021/01/06 06:37:52;;;;;;;48.70;23.00;;;0.30;99.90;;;;;;5014787;28;20479;-81
2021/01/06 06:40:18;;;;;;;49.05;24.05;;;0.30;99.90;;;;;;5014734;28;20129;-82
2021/01/06 06:43:01;;;;;;;44.35;19.73;;;0.30;99.90;;;;;;5015967;28;20480;-81
2021/01/06 06:45:32;;;;;;;59.55;25.20;;;0.30;99.90;;;;;;5015965;28;20042;-81
2021/01/06 06:48:31;;;;;;;41.80;19.05;;;0.30;99.90;;;;;;5014568;28;20507;-81
2021/01/06 06:51:17;;;;;;;44.88;20.92;;;0.20;99.90;;;;;;5013595;28;20033;-81
2021/01/06 06:53:55;;;;;;;42.95;21.17;;;0.20;99.90;;;;;;5013921;28;20037;-81
2021/01/06 06:56:50;;;;;;;50.67;24.55;;;0.20;99.90;;;;;;5012146;28;20040;-81
2021/01/06 06:59:28;;;;;;;50.70;22.15;;;0.20;99.90;;;;;;5043999;28;20056;-81
2021/01/06 07:02:00;;;;;;;38.67;19.27;;;0.20;99.90;;;;;;5015617;28;20435;-81
2021/01/06 07:04:42;;;;;;;47.40;22.02;;;0.20;99.90;;;;;;5014169;28;20033;-81
2021/01/06 07:07:41;;;;;;;41.03;19.85;;;0.20;99.90;;;;;;5021539;28;20510;-81
2021/01/06 07:10:20;;;;;;;48.33;24.80;;;0.20;99.90;;;;;;5027958;28;20064;-81
2021/01/06 07:12:47;;;;;;;52.15;22.77;;;0.20;99.90;;;;;;5022764;28;20033;-82
2021/01/06 07:15:29;;;;;;;55.78;24.80;;;0.20;99.90;;;;;;5013342;28;20048;-82
2021/01/06 07:17:55;;;;;;;52.88;24.70;;;0.30;99.90;;;;;;5015194;28;20033;-81
2021/01/06 07:20:38;;;;;;;64.40;28.15;;;0.30;99.90;;;;;;5015177;28;20084;-81
2021/01/06 07:23:18;;;;;;;50.85;21.88;;;0.30;99.90;;;;;;5013734;28;20030;-81
2021/01/06 07:26:02;;;;;;;59.53;25.83;;;0.30;99.90;;;;;;5015131;28;20026;-81
2021/01/06 07:28:28;;;;;;;61.25;26.38;;;0.30;99.90;;;;;;4995480;28;20022;-81
2021/01/06 07:30:54;;;;;;;62.55;27.45;;;0.30;99.90;;;;;;4995451;28;20081;-81
2021/01/06 07:33:39;;;;;;;68.25;28.80;;;0.30;99.90;;;;;;5025743;28;20440;-81
2021/01/06 07:36:12;;;;;;;60.47;29.95;;;0.30;99.90;;;;;;4993682;28;20066;-81
2021/01/06 07:38:39;;;;;;;63.63;27.92;;;0.30;99.90;;;;;;5030350;28;20017;-81
2021/01/06 07:41:06;;;;;;;54.70;27.70;;;0.30;99.90;;;;;;5023350;28;20017;-81
2021/01/06 07:43:33;;;;;;;58.65;25.20;;;0.30;99.90;;;;;;5021423;28;20101;-81
2021/01/06 07:46:05;;;;;;;55.75;24.00;;;0.30;99.90;;;;;;5018840;28;20121;-81
2021/01/06 07:48:40;;;;;;;47.50;20.63;;;0.40;99.90;;;;;;5009584;28;20038;-81
2021/01/06 07:51:15;;;;;;;49.83;23.35;;;0.40;99.90;;;;;;4993636;28;20026;-81
2021/01/06 07:54:09;;;;;;;54.17;24.95;;;0.40;99.90;;;;;;5009642;28;20030;-81
2021/01/06 07:57:05;;;;;;;56.88;23.60;;;0.40;99.90;;;;;;5010229;28;20038;-81
2021/01/06 07:59:45;;;;;;;65.80;28.65;;;0.40;99.90;;;;;;5021933;28;20029;-82
2021/01/06 08:02:21;;;;;;;72.68;30.00;;;0.40;99.90;;;;;;5020733;28;20068;-81
2021/01/06 08:04:56;;;;;;;88.18;37.92;;;0.40;99.90;;;;;;5012120;28;20152;-81
2021/01/06 08:07:24;;;;;;;82.72;35.08;;;0.50;99.90;;;;;;5012672;28;20041;-81
2021/01/06 08:09:51;;;;;;;72.88;31.20;;;0.50;99.90;;;;;;5012858;28;20048;-81
2021/01/06 08:12:25;;;;;;;79.35;31.73;;;0.60;99.90;;;;;;5016238;28;20104;-81
2021/01/06 08:15:17;;;;;;;60.17;27.83;;;0.70;99.90;;;;;;5022616;28;20018;-81
2021/01/06 08:18:03;;;;;;;57.58;26.60;;;0.80;99.90;;;;;;5001055;28;20022;-81
2021/01/06 08:20:35;;;;;;;65.90;29.42;;;0.90;99.90;;;;;;5012490;28;20506;-81
2021/01/06 08:23:26;;;;;;;79.32;32.33;;;1.00;99.90;;;;;;5011937;28;20045;-81
2021/01/06 08:26:17;;;;;;;70.20;31.00;;;1.10;99.90;;;;;;5018939;28;20483;-81
2021/01/06 08:28:42;;;;;;;64.80;30.17;;;1.20;99.90;;;;;;5022857;28;20021;-81
2021/01/06 08:31:14;;;;;;;75.57;31.08;;;1.20;99.90;;;;;;5013890;28;20068;-81
2021/01/06 08:33:56;;;;;;;61.30;29.58;;;1.20;99.90;;;;;;5014412;28;20549;-79
2021/01/06 08:36:36;;;;;;;68.75;32.22;;;1.30;99.90;;;;;;5035379;28;20380;-79
2021/01/06 08:39:25;;;;;;;61.25;29.10;;;1.30;99.90;;;;;;5017350;28;20029;-78
2021/01/06 08:41:54;;;;;;;50.90;24.95;;;1.40;99.90;;;;;;5017817;28;20025;-78
2021/01/06 08:44:32;;;;;;;51.75;24.67;;;1.50;99.90;;;;;;5018533;28;20087;-79
2021/01/06 08:47:01;;;;;;;48.10;22.50;;;1.50;99.90;;;;;;5011854;28;20068;-79
2021/01/06 08:49:30;;;;;;;45.33;22.17;;;1.60;99.90;;;;;;5012139;28;20026;-78
2021/01/06 08:52:15;;;;;;;49.60;22.80;;;1.70;99.90;;;;;;5011705;28;20034;-79
2021/01/06 08:54:42;;;;;;;56.05;22.35;;;1.70;99.90;;;;;;5013233;28;20534;-79
2021/01/06 08:57:22;;;;;;;56.67;25.83;;;1.70;99.90;;;;;;5012027;28;20365;-78
2021/01/06 08:59:48;;;;;;;54.03;23.42;;;1.60;99.90;;;;;;5006880;28;20068;-79
2021/01/06 09:02:22;;;;;;;59.35;27.45;;;1.60;99.90;;;;;;5006191;28;20050;-79
2021/01/06 09:04:48;;;;;;;67.03;30.48;;;1.60;99.90;;;;;;4992270;28;20030;-79
2021/01/06 09:07:17;;;;;;;48.08;24.60;;;1.50;99.90;;;;;;4997238;28;20076;-79
2021/01/06 09:09:59;;;;;;;62.08;29.40;;;1.40;99.90;;;;;;5007236;28;20044;-78
2021/01/06 09:12:50;;;;;;;58.40;27.25;;;1.40;99.90;;;;;;5009112;28;20383;-79
2021/01/06 09:15:30;;;;;;;53.35;26.73;;;1.40;99.90;;;;;;5007739;28;20057;-79
2021/01/06 09:18:06;;;;;;;54.35;21.52;;;1.40;99.90;;;;;;5009537;28;20030;-78
2021/01/06 09:21:03;;;;;;;39.88;19.52;;;1.30;99.90;;;;;;5011060;28;20026;-79
2021/01/06 09:23:30;;;;;;;37.45;19.13;;;1.20;99.90;;;;;;5007855;28;20042;-78
2021/01/06 09:25:58;;;;;;;42.58;20.13;;;1.20;99.90;;;;;;5009323;28;20053;-79
2021/01/06 09:28:26;;;;;;;39.00;18.02;;;1.10;99.90;;;;;;5009652;28;20016;-79
2021/01/06 09:30:52;;;;;;;36.35;17.17;;;1.20;99.90;;;;;;5020000;28;20100;-79
2021/01/06 09:33:28;;;;;;;35.70;16.88;;;1.20;99.90;;;;;;5019349;28;20053;-79
2021/01/06 09:35:54;;;;;;;47.85;20.17;;;1.20;99.90;;;;;;5018036;28;20028;-79
2021/01/06 09:38:49;;;;;;;44.85;19.08;;;1.20;99.90;;;;;;5019482;28;20076;-79
2021/01/06 09:41:23;;;;;;;43.40;19.27;;;1.20;99.90;;;;;;5025448;28;20395;-79
2021/01/06 09:44:07;;;;;;;36.25;18.48;;;1.20;99.90;;;;;;5012852;28;20054;-79
2021/01/06 09:46:44;;;;;;;36.38;17.23;;;1.10;99.90;;;;;;5015569;28;20038;-79
2021/01/06 09:49:13;;;;;;;36.92;18.67;;;1.20;99.90;;;;;;5015405;28;20558;-78
2021/01/06 09:51:42;;;;;;;40.80;18.90;;;1.20;99.90;;;;;;5009186;28;20431;-80
2021/01/06 09:54:12;;;;;;;42.47;19.50;;;1.20;99.90;;;;;;5006564;28;20037;-79
2021/01/06 09:56:38;;;;;;;40.20;18.55;;;1.20;99.90;;;;;;5012564;28;20056;-80
2021/01/06 09:59:18;;;;;;;44.55;19.55;;;1.20;99.90;;;;;;5015612;28;20068;-79
2021/01/06 10:01:57;;;;;;;37.08;18.17;;;1.20;99.90;;;;;;5012088;28;20109;-80
2021/01/06 10:04:26;;;;;;;48.08;21.17;;;1.30;99.90;;;;;;5014542;28;20026;-80
2021/01/06 10:07:04;;;;;;;44.83;20.33;;;1.30;99.90;;;;;;5013907;28;20149;-80
2021/01/06 10:09:37;;;;;;;49.63;22.25;;;1.30;99.90;;;;;;5009046;28;20030;-79
2021/01/06 10:12:21;;;;;;;51.15;21.60;;;1.40;99.90;;;;;;5014220;28;20479;-79
2021/01/06 10:15:29;;;;;;;59.42;27.13;;;1.40;99.90;;;;;;5013648;28;20124;-79
2021/01/06 10:17:57;;;;;;;52.95;25.15;;;1.40;99.90;;;;;;5012675;28;20109;-79
2021/01/06 10:20:38;;;;;;;48.65;23.83;;;1.50;99.90;;;;;;5015228;28;20029;-79
2021/01/06 10:23:48;;;;;;;47.05;22.40;;;1.50;99.90;;;;;;5015485;28;20041;-79
2021/01/06 10:26:29;;;;;;;50.95;20.83;;;1.50;99.90;;;;;;4991198;28;20162;-80
2021/01/06 10:28:55;;;;;;;47.15;19.90;;;1.60;99.90;;;;;;5013626;28;20092;-80
2021/01/06 10:31:26;;;;;;;38.35;20.25;;;1.60;99.90;;;;;;5014545;28;20072;-80
2021/01/06 10:34:11;;;;;;;47.47;22.00;;;1.50;99.90;;;;;;5014114;28;20026;-79
2021/01/06 10:36:52;;;;;;;52.90;23.30;;;1.50;99.90;;;;;;5012671;28;20068;-80
2021/01/06 10:39:26;;;;;;;51.85;23.63;;;1.50;99.90;;;;;;5007804;28;20083;-80
2021/01/06 10:42:05;;;;;;;47.03;22.85;;;1.60;99.90;;;;;;5028832;28;20026;-79
2021/01/06 10:44:36;;;;;;;56.28;24.67;;;1.60;99.90;;;;;;5021911;28;20025;-79
2021/01/06 10:47:29;;;;;;;46.83;20.83;;;1.60;99.90;;;;;;5024063;28;20072;-80
2021/01/06 10:50:04;;;;;;;;;;;1.70;99.90;;;;;;5022953;28;20072;-80
2021/01/06 10:53:00;;;;;;;49.13;21.63;;;1.70;99.90;;;;;;5017624;28;19925;-80
2021/01/06 10:56:04;;;;;;;45.63;22.80;;;1.60;99.90;;;;;;5022082;28;20037;-80
2021/01/06 10:58:42;;;;;;;53.08;22.90;;;1.60;99.90;;;;;;5024724;28;20105;-80
2021/01/06 11:01:10;;;;;;;56.85;23.60;;;1.60;99.90;;;;;;5023473;28;20028;-80
2021/01/06 11:04:19;;;;;;;64.53;26.92;;;1.60;99.90;;;;;;5020286;28;20568;-80
2021/01/06 11:07:16;;;;;;;61.55;26.23;;;1.60;99.90;;;;;;5024771;28;20072;-79
2021/01/06 11:09:54;;;;;;;60.10;26.77;;;1.60;99.90;;;;;;5030746;28;20029;-79
2021/01/06 11:12:39;;;;;;;60.30;27.15;;;1.70;99.90;;;;;;5034484;28;20624;-80
2021/01/06 11:15:21;;;;;;;63.25;27.13;;;1.80;99.90;;;;;;5014201;28;20137;-79
2021/01/06 11:18:10;;;;;;;63.80;28.42;;;1.80;99.90;;;;;;5013494;28;20022;-79
2021/01/06 11:20:39;;;;;;;56.75;28.50;;;1.90;99.90;;;;;;5008581;28;20022;-80
2021/01/06 11:23:42;;;;;;;62.17;28.48;;;1.90;99.90;;;;;;5012227;28;20506;-80
2021/01/06 11:26:32;;;;;;;61.65;27.85;;;2.00;99.90;;;;;;5023336;28;20045;-79
2021/01/06 11:29:24;;;;;;;64.18;27.23;;;2.00;99.90;;;;;;5012339;28;20387;-79
2021/01/06 11:31:50;;;;;;;65.05;27.95;;;2.00;99.90;;;;;;5015564;28;20049;-80
2021/01/06 11:34:15;;;;;;;58.47;24.88;;;2.10;99.90;;;;;;5017671;28;20496;-80
2021/01/06 11:36:44;;;;;;;66.30;28.63;;;2.10;99.90;;;;;;5014426;28;20018;-81
2021/01/06 11:39:36;;;;;;;70.90;31.23;;;2.10;99.90;;;;;;5016535;28;20029;-81
2021/01/06 11:42:04;;;;;;;67.25;30.08;;;2.10;99.90;;;;;;5014594;28;20018;-80
2021/01/06 11:44:39;;;;;;;65.78;28.38;;;2.10;99.90;;;;;;5018106;28;20091;-81
2021/01/06 11:47:09;;;;;;;58.63;26.75;;;2.00;99.90;;;;;;5016343;28;20053;-81
2021/01/06 11:49:34;;;;;;;64.25;29.80;;;2.10;99.90;;;;;;5014706;28;20017;-81
2021/01/06 11:52:03;;;;;;;68.75;31.52;;;2.10;99.90;;;;;;5010890;28;20124;-81
2021/01/06 11:54:31;;;;;;;54.50;28.70;;;2.10;99.90;;;;;;5018910;28;20022;-80
2021/01/06 11:57:18;;;;;;;59.97;27.63;;;2.10;99.90;;;;;;5037540;28;20036;-80
2021/01/06 12:00:10;;;;;;;67.25;29.33;;;2.10;99.90;;;;;;5053049;28;20022;-81
2021/01/06 12:02:53;;;;;;;67.43;30.98;;;2.20;99.90;;;;;;5011275;28;20101;-81
2021/01/06 12:05:31;;;;;;;67.32;31.60;;;2.10;99.90;;;;;;5013077;28;20168;-81
2021/01/06 12:08:11;;;;;;;58.78;27.88;;;2.10;99.90;;;;;;5014355;28;20017;-80
2021/01/06 12:11:04;;;;;;;63.47;27.20;;;2.10;99.90;;;;;;5012546;28;20018;-80
2021/01/06 12:13:50;;;;;;;61.63;26.75;;;2.10;99.90;;;;;;5013084;28;20033;-80
2021/01/06 12:16:33;;;;;;;57.08;27.95;;;2.10;99.90;;;;;;5013387;28;20097;-80
2021/01/06 12:19:07;;;;;;;54.30;24.98;;;2.00;99.90;;;;;;5013699;28;20017;-80
2021/01/06 12:21:36;;;;;;;54.47;24.30;;;2.00;99.90;;;;;;5012945;28;20021;-80
2021/01/06 12:24:22;;;;;;;49.25;21.85;;;2.00;99.90;;;;;;5013997;28;20472;-80
2021/01/06 12:27:05;;;;;;;63.10;27.52;;;2.00;99.90;;;;;;5021419;28;20036;-80
2021/01/06 12:29:46;;;;;;;54.70;26.15;;;2.00;99.90;;;;;;5017848;28;20480;-80
2021/01/06 12:32:33;;;;;;;50.22;24.42;;;2.10;99.90;;;;;;5010394;28;20030;-80
2021/01/06 12:35:14;;;;;;;56.22;26.88;;;2.00;99.90;;;;;;5035701;28;20061;-80
2021/01/06 12:37:42;;;;;;;47.08;23.25;;;2.10;99.90;;;;;;5025169;28;20026;-80
2021/01/06 12:40:11;;;;;;;59.83;25.23;;;2.00;99.90;;;;;;5008136;28;20025;-80
2021/01/06 12:42:50;;;;;;;63.42;27.88;;;2.10;99.90;;;;;;5013373;28;20502;-80
2021/01/06 12:45:30;;;;;;;52.45;23.95;;;2.10;99.90;;;;;;5011748;28;20072;-80
2021/01/06 12:48:03;;;;;;;56.45;25.13;;;2.10;99.90;;;;;;5007361;28;20026;-80
2021/01/06 12:50:41;;;;;;;56.72;24.95;;;2.10;99.90;;;;;;5008553;28;20060;-81
2021/01/06 12:53:12;;;;;;;61.15;25.50;;;2.10;99.90;;;;;;5009937;28;20029;-80
2021/01/06 12:55:51;;;;;;;54.92;25.65;;;2.10;99.90;;;;;;5009369;28;20069;-80
2021/01/06 12:58:40;;;;;;;64.90;29.83;;;2.00;99.90;;;;;;5008254;28;20034;-79
2021/01/06 13:01:17;;;;;;;55.17;26.10;;;2.00;99.90;;;;;;5008178;28;20042;-80
2021/01/06 13:03:58;;;;;;;60.03;26.92;;;2.00;99.90;;;;;;5011479;28;20033;-80
2021/01/06 13:06:42;;;;;;;56.17;26.02;;;2.00;99.90;;;;;;5019426;28;20046;-80
2021/01/06 13:09:13;;;;;;;54.17;24.27;;;2.00;99.90;;;;;;5014865;28;20156;-79
2021/01/06 13:11:41;;;;;;;58.85;26.02;;;2.00;99.90;;;;;;5015063;28;20033;-80
2021/01/06 13:14:13;;;;;;;58.80;28.23;;;2.00;99.90;;;;;;5022469;28;20100;-80
2021/01/06 13:17:02;;;;;;;59.63;27.23;;;2.10;99.90;;;;;;5022888;28;20164;-80
2021/01/06 13:19:40;;;;;;;64.90;26.70;;;2.00;99.90;;;;;;5017964;28;20021;-80
2021/01/06 13:22:24;;;;;;;57.67;25.67;;;2.00;99.90;;;;;;5013717;28;20014;-80